Home > Products > Valid Products > TAF

000
FTUS41 KBUF 061120
TAFART
TAF
KART 061120Z 0612/0712 04006KT P6SM SCT250
     FM061500 03012KT P6SM FEW250
     FM062200 03010KT P6SM BKN140
     FM070000 03005KT P6SM BKN060
     FM070300 VRB03KT P6SM BKN040
     FM070800 15006KT P6SM BKN035=



000
FTUS41 KBUF 061120
TAFROC
TAF
KROC 061120Z 0612/0712 01008KT P6SM SCT250
     FM061600 02013KT P6SM SCT250
     FM062100 03012KT P6SM BKN120
     FM062300 04007KT P6SM VCSH BKN070
     FM070100 VRB03KT P6SM VCSH OVC045
     FM070600 VRB03KT P6SM BKN035=



000
FTUS41 KBUF 061120
TAFJHW
TAF
KJHW 061120Z 0612/0712 35007KT P6SM SCT250
     FM061600 01013KT P6SM SCT250
     FM062000 36013KT P6SM BKN150
     FM062300 01008KT P6SM BKN090
     FM070300 VRB03KT P6SM BKN080
     FM070700 VRB03KT P6SM BKN020
      AMD LTD TO CLD VIS AND WIND=



000
FTUS41 KBUF 061120
TAFIAG
TAF
KIAG 061120Z 0612/0712 36006KT P6SM FEW250
     FM061600 02011KT P6SM FEW250
     FM062300 07005KT P6SM SCT250
     FM070400 VRB03KT P6SM BKN080
     FM070900 VRB03KT P6SM BKN050=



000
FTUS41 KBUF 061120
TAFBUF
TAF
KBUF 061120Z 0612/0712 04005KT P6SM FEW250
     FM061600 03012KT P6SM SCT250
     FM062300 05007KT P6SM BKN130
     FM070300 VRB03KT P6SM BKN080
     FM070800 VRB03KT P6SM BKN045=



000
FTUS41 KBUF 061120
TAFROC
TAF
KROC 061120Z 0612/0712 01008KT P6SM SCT250
     FM061600 02013KT P6SM SCT250
     FM062100 03012KT P6SM BKN120
     FM062300 04007KT P6SM VCSH BKN070
     FM070100 VRB03KT P6SM VCSH OVC045
     FM070600 VRB03KT P6SM BKN035=



000
FTUS41 KBUF 061120
TAFART
TAF
KART 061120Z 0612/0712 04006KT P6SM SCT250
     FM061500 03012KT P6SM FEW250
     FM062200 03010KT P6SM BKN140
     FM070000 03005KT P6SM BKN060
     FM070300 VRB03KT P6SM BKN040
     FM070800 15006KT P6SM BKN035=



000
FTUS41 KBUF 061120
TAFJHW
TAF
KJHW 061120Z 0612/0712 35007KT P6SM SCT250
     FM061600 01013KT P6SM SCT250
     FM062000 36013KT P6SM BKN150
     FM062300 01008KT P6SM BKN090
     FM070300 VRB03KT P6SM BKN080
     FM070700 VRB03KT P6SM BKN020
      AMD LTD TO CLD VIS AND WIND=



000
FTUS41 KBUF 061120
TAFIAG
TAF
KIAG 061120Z 0612/0712 36006KT P6SM FEW250
     FM061600 02011KT P6SM FEW250
     FM062300 07005KT P6SM SCT250
     FM070400 VRB03KT P6SM BKN080
     FM070900 VRB03KT P6SM BKN050=



000
FTUS41 KBUF 061120
TAFBUF
TAF
KBUF 061120Z 0612/0712 04005KT P6SM FEW250
     FM061600 03012KT P6SM SCT250
     FM062300 05007KT P6SM BKN130
     FM070300 VRB03KT P6SM BKN080
     FM070800 VRB03KT P6SM BKN045=



000
FTUS41 KBUF 060940 AAA
TAFBUF
TAF AMD
KBUF 060940Z 0610/0706 VRB04KT P6SM FEW250
     FM061300 03006KT P6SM SCT250
     FM061600 03012KT P6SM SCT250
     FM062300 05007KT P6SM BKN130
     FM070300 11004KT P6SM BKN070=



000
FTUS41 KBUF 060940 AAA
TAFJHW
TAF AMD
KJHW 060940Z 0610/0706 33008KT P6SM SCT200
     FM061200 36006KT P6SM SCT200
     FM062000 36013KT P6SM BKN140
     FM062300 01008KT P6SM BKN090
     FM070300 VRB03KT P6SM BKN060
      AMD LTD TO CLD VIS AND WIND=



000
FTUS41 KBUF 060940 AAA
TAFART
TAF AMD
KART 060940Z 0610/0706 09004KT P6SM FEW250
     FM061200 04007KT P6SM SCT250
     FM061600 04012KT P6SM FEW250
     FM062200 03010KT P6SM BKN130
     FM070000 03005KT P6SM BKN060
     FM070300 VRB03KT P6SM VCSH BKN045=



000
FTUS41 KBUF 060940 AAA
TAFIAG
TAF AMD
KIAG 060940Z 0610/0706 VRB04KT P6SM FEW250
     FM061300 02006KT P6SM FEW250
     FM061600 02011KT P6SM FEW250
     FM062300 07006KT P6SM SCT250
     FM070400 00000KT P6SM BKN090=



000
FTUS41 KBUF 060940 AAA
TAFROC
TAF AMD
KROC 060940Z 0610/0706 34006KT P6SM BKN250
     FM061200 01006KT P6SM SCT250
     FM061600 02013KT P6SM SCT250
     FM062100 03012KT P6SM BKN130
     FM062300 04007KT P6SM VCSH BKN060
     FM070200 VRB03KT P6SM VCSH BKN040=



000
FTUS41 KBUF 060531
TAFBUF
TAF
KBUF 060531Z 0606/0706 VRB04KT P6SM FEW250
     FM061300 03006KT P6SM SCT250
     FM061600 03012KT P6SM SCT250
     FM062300 05007KT P6SM BKN130
     FM070300 11004KT P6SM BKN070=



000
FTUS41 KBUF 060531
TAFIAG
TAF
KIAG 060531Z 0606/0706 VRB04KT P6SM FEW250
     FM061300 02006KT P6SM FEW250
     FM061600 02011KT P6SM FEW250
     FM062300 07006KT P6SM SCT250
     FM070400 00000KT P6SM BKN090=



000
FTUS41 KBUF 060531
TAFROC
TAF
KROC 060531Z 0606/0706 34005KT P6SM BKN250
     FM061200 01006KT P6SM SCT250
     FM061600 02013KT P6SM SCT250
     FM062100 03012KT P6SM BKN130
     FM062300 04007KT P6SM VCSH BKN060
     FM070200 VRB03KT P6SM VCSH BKN040=



000
FTUS41 KBUF 060531
TAFART
TAF
KART 060531Z 0606/0706 04004KT P6SM FEW250
     FM061200 04007KT P6SM SCT250
     FM061600 04012KT P6SM FEW250
     FM062200 03010KT P6SM BKN130
     FM070000 03005KT P6SM BKN060
     FM070300 VRB03KT P6SM VCSH BKN045=



000
FTUS41 KBUF 060531
TAFJHW
TAF
KJHW 060531Z 0606/0706 34004KT P6SM FEW250
     FM060900 VRB03KT P6SM BKN200
     FM061200 36006KT P6SM SCT200
     FM062000 36013KT P6SM BKN140
     FM062300 01008KT P6SM BKN090
     FM070300 VRB03KT P6SM BKN060
      AMD LTD TO CLD VIS AND WIND=



000
FTUS41 KBUF 060229 AAA
TAFIAG
TAF AMD
KIAG 060229Z 0602/0624 34003KT P6SM SCT200
     FM061400 02008KT P6SM SCT200
     FM061800 03012KT P6SM BKN200=



000
FTUS41 KBUF 060229 AAA
TAFROC
TAF AMD
KROC 060229Z 0602/0624 36005KT P6SM SCT200
     FM060500 35005KT P6SM SCT040
     FM061500 03010KT P6SM BKN150
     FM062300 02010KT P6SM OVC100=



000
FTUS41 KBUF 060229 AAA
TAFBUF
TAF AMD
KBUF 060229Z 0602/0624 36003KT P6SM SCT200
     FM061400 03008KT P6SM SCT200
     FM061800 04012KT P6SM BKN200=



000
FTUS41 KBUF 060229 AAA
TAFJHW
TAF AMD
KJHW 060229Z 0602/0624 35005KT P6SM SCT040
     FM061400 02010KT P6SM SCT200
     FM061800 01014G22KT P6SM BKN120
      AMD LTD TO CLD VIS AND WIND=



000
FTUS41 KBUF 060229 AAA
TAFART
TAF AMD
KART 060229Z 0602/0624 04005KT P6SM SCT060
     FM061400 04012KT P6SM SCT200
     FM062000 04012KT P6SM BKN150=



000
FTUS41 KBUF 060229 AAA
TAFART
TAF AMD
KART 060229Z 0602/0624 04005KT P6SM SCT060
     FM061400 04012KT P6SM SCT200
     FM062000 04012KT P6SM BKN150=



000
FTUS41 KBUF 060229 AAA
TAFBUF
TAF AMD
KBUF 060229Z 0602/0624 36003KT P6SM SCT200
     FM061400 03008KT P6SM SCT200
     FM061800 04012KT P6SM BKN200=



000
FTUS41 KBUF 060229 AAA
TAFJHW
TAF AMD
KJHW 060229Z 0602/0624 35005KT P6SM SCT040
     FM061400 02010KT P6SM SCT200
     FM061800 01014G22KT P6SM BKN120
      AMD LTD TO CLD VIS AND WIND=



000
FTUS41 KBUF 060229 AAA
TAFIAG
TAF AMD
KIAG 060229Z 0602/0624 34003KT P6SM SCT200
     FM061400 02008KT P6SM SCT200
     FM061800 03012KT P6SM BKN200=



000
FTUS41 KBUF 060229 AAA
TAFROC
TAF AMD
KROC 060229Z 0602/0624 36005KT P6SM SCT200
     FM060500 35005KT P6SM SCT040
     FM061500 03010KT P6SM BKN150
     FM062300 02010KT P6SM OVC100=



000
FTUS41 KBUF 052320
TAFROC
TAF
KROC 052320Z 0600/0624 04007KT P6SM SCT040 BKN200
     FM060400 35005KT P6SM SCT040
     FM061500 03010KT P6SM BKN150
     FM062300 02010KT P6SM OVC100=



000
FTUS41 KBUF 052320
TAFIAG
TAF
KIAG 052320Z 0600/0624 01007KT P6SM SCT040 BKN200
     FM060300 VRB03KT P6SM SCT040
     FM061400 02008KT P6SM SCT200
     FM061800 03012KT P6SM BKN200=



000
FTUS41 KBUF 052320
TAFBUF
TAF
KBUF 052320Z 0600/0624 03007KT P6SM SCT040 BKN200
     FM060300 VRB03KT P6SM SCT040
     FM060800 VRB03KT P6SM SKC
     FM061400 03008KT P6SM SCT200
     FM061800 04012KT P6SM BKN200=



000
FTUS41 KBUF 052320
TAFJHW
TAF
KJHW 052320Z 0600/0624 02007KT P6SM BKN040
     FM060300 36005KT P6SM BKN100
     FM061400 02010KT P6SM SCT200
     FM061800 01014G22KT P6SM BKN120
      AMD LTD TO CLD VIS AND WIND=



000
FTUS41 KBUF 052320
TAFART
TAF
KART 052320Z 0600/0624 04008KT P6SM BKN040
     FM060200 03005KT P6SM SCT040
     FM061400 04012KT P6SM SCT200
     FM062000 04012KT P6SM BKN150=



000
FTUS41 KBUF 052320
TAFIAG
TAF
KIAG 052320Z 0600/0624 01007KT P6SM SCT040 BKN200
     FM060300 VRB03KT P6SM SCT040
     FM061400 02008KT P6SM SCT200
     FM061800 03012KT P6SM BKN200=



000
FTUS41 KBUF 052320
TAFROC
TAF
KROC 052320Z 0600/0624 04007KT P6SM SCT040 BKN200
     FM060400 35005KT P6SM SCT040
     FM061500 03010KT P6SM BKN150
     FM062300 02010KT P6SM OVC100=



000
FTUS41 KBUF 052320
TAFBUF
TAF
KBUF 052320Z 0600/0624 03007KT P6SM SCT040 BKN200
     FM060300 VRB03KT P6SM SCT040
     FM060800 VRB03KT P6SM SKC
     FM061400 03008KT P6SM SCT200
     FM061800 04012KT P6SM BKN200=



000
FTUS41 KBUF 052320
TAFART
TAF
KART 052320Z 0600/0624 04008KT P6SM BKN040
     FM060200 03005KT P6SM SCT040
     FM061400 04012KT P6SM SCT200
     FM062000 04012KT P6SM BKN150=



000
FTUS41 KBUF 052320
TAFJHW
TAF
KJHW 052320Z 0600/0624 02007KT P6SM BKN040
     FM060300 36005KT P6SM BKN100
     FM061400 02010KT P6SM SCT200
     FM061800 01014G22KT P6SM BKN120
      AMD LTD TO CLD VIS AND WIND=



000
FTUS41 KBUF 052024 AAA
TAFART
TAF AMD
KART 052024Z 0520/0618 03014KT P6SM BKN040
     FM060000 04008KT P6SM SCT040
     FM060300 03005KT P6SM SKC
     FM061400 04012KT P6SM SKC=



000
FTUS41 KBUF 052024 AAA
TAFIAG
TAF AMD
KIAG 052024Z 0520/0618 04012KT P6SM BKN040
     FM060000 01005KT P6SM SCT040
     FM061500 02008KT P6SM SKC
     FM061700 03010G16KT P6SM SKC=



000
FTUS41 KBUF 052024 AAA
TAFJHW
TAF AMD
KJHW 052024Z 0520/0618 03012G18KT P6SM BKN050
     FM060000 01006KT P6SM BKN040
     FM061400 02014KT P6SM SCT200
      AMD LTD TO CLD VIS AND WIND=



000
FTUS41 KBUF 052024 AAA
TAFROC
TAF AMD
KROC 052024Z 0520/0618 03014KT P6SM SCT200
     FM052300 01008KT P6SM SCT040
     FM060400 36005KT P6SM SCT040
     FM061400 03010KT P6SM SCT050=



000
FTUS41 KBUF 052024 AAA
TAFBUF
TAF AMD
KBUF 052024Z 0520/0618 04012KT P6SM BKN040
     FM060000 02006KT P6SM BKN040
     FM060300 VRB03KT P6SM SCT050
     FM060900 VRB03KT P6SM SKC
     FM061400 03008KT P6SM SKC=



000
FTUS41 KBUF 051720
TAFIAG
TAF
KIAG 051720Z 0518/0618 04013KT P6SM OVC060
     FM052300 01006KT P6SM SCT060
     FM060100 VRB03KT P6SM SCT040
     FM061500 02008KT P6SM SCT150
     FM061700 03010G16KT P6SM FEW250=



000
FTUS41 KBUF 051720
TAFBUF
TAF
KBUF 051720Z 0518/0618 04011KT P6SM OVC040
     FM060000 02005KT P6SM BKN040
     FM060300 VRB03KT P6SM SCT050
     FM060900 VRB03KT P6SM SCT200
     FM061200 02004KT P6SM FEW250
     FM061400 03008KT P6SM FEW250=



000
FTUS41 KBUF 051720
TAFART
TAF
KART 051720Z 0518/0618 03012KT P6SM BKN040
     FM060000 04008KT P6SM BKN045
     FM060200 04006KT P6SM FEW250
     FM061400 04011KT P6SM FEW250=



000
FTUS41 KBUF 051720
TAFJHW
TAF
KJHW 051720Z 0518/0618 03011KT P6SM VCSH OVC050
     FM052000 02011KT P6SM VCTS BKN035CB
     FM060000 01006KT P6SM BKN035
     FM060600 35005KT P6SM BKN200
     FM061300 02013KT P6SM SCT200
     FM061700 02014KT P6SM BKN100
      AMD LTD TO CLD VIS AND WIND=



000
FTUS41 KBUF 051720
TAFROC
TAF
KROC 051720Z 0518/0618 03013KT P6SM BKN200
     FM052300 36007KT P6SM BKN040
     FM060400 33006KT P6SM BKN200
     FM061200 01005KT P6SM FEW250
     FM061500 03009KT P6SM SCT250=



000
FTUS41 KBUF 051503 AAA
TAFART
TAF AMD
KART 051503Z 0515/0612 06007KT P6SM OVC050
      TEMPO 0515/0517 BKN030
     FM051700 03012KT P6SM BKN045
     FM060000 03008KT P6SM BKN045
     FM060400 04004KT P6SM BKN070
     FM060800 03004KT P6SM SCT080=



000
FTUS41 KBUF 051503 AAB
TAFBUF
TAF AMD
KBUF 051503Z 0515/0612 04010KT P6SM BKN025
     FM051700 04012KT P6SM BKN040
     FM052300 02008KT P6SM BKN040
     FM061000 35004KT P6SM BKN200=



000
FTUS41 KBUF 051503 AAA
TAFROC
TAF AMD
KROC 051503Z 0515/0612 04010KT P6SM BKN040
     FM051700 03012KT P6SM BKN060
     FM052300 36008KT P6SM BKN040
     FM060300 34006KT P6SM BKN040
     FM060900 34005KT P6SM BKN090=



000
FTUS41 KBUF 051503 AAA
TAFJHW
TAF AMD
KJHW 051503Z 0515/0612 03006KT P6SM VCSH OVC025
     FM051700 02011KT P6SM VCTS BKN035CB
     FM052300 01010KT P6SM BKN035
     FM060300 36005KT P6SM BKN035
     FM061100 01007KT P6SM BKN080
      AMD LTD TO CLD VIS AND WIND=



000
FTUS41 KBUF 051503 AAA
TAFIAG
TAF AMD
KIAG 051503Z 0515/0612 04012KT P6SM BKN025
     FM051800 03012KT P6SM BKN035
     FM052300 02007KT P6SM BKN040
     FM060300 34005KT P6SM BKN050
     FM060900 34005KT P6SM BKN200=



000
FTUS41 KBUF 051343 AAA
TAFBUF
TAF AMD
KBUF 051343Z 0514/0612 05008KT P6SM BKN008
     FM051500 04010KT P6SM BKN025
     FM051600 04012KT P6SM BKN040
     FM052300 02008KT P6SM BKN040
     FM061000 35004KT P6SM BKN200=



000
FTUS41 KBUF 051120
TAFBUF
TAF
KBUF 051120Z 0512/0612 04007KT 3SM BR OVC005
     FM051300 04008KT P6SM OVC012
     FM051400 05008KT P6SM BKN025
     FM051600 04012KT P6SM BKN040
     FM052300 02008KT P6SM BKN040
     FM061000 35004KT P6SM BKN200=



000
FTUS41 KBUF 051120
TAFART
TAF
KART 051120Z 0512/0612 06007KT P6SM OVC050
      TEMPO 0514/0517 BKN030
     FM051700 03012KT P6SM BKN045
     FM060000 03008KT P6SM BKN045
     FM060400 04004KT P6SM BKN070
     FM060800 03004KT P6SM SCT080=



000
FTUS41 KBUF 051120
TAFIAG
TAF
KIAG 051120Z 0512/0612 05009KT P6SM SCT005 OVC012
     FM051300 05010KT P6SM BKN025
     FM051500 04012KT P6SM BKN040
     FM052300 02007KT P6SM BKN040
     FM060300 34005KT P6SM BKN050
     FM060900 34005KT P6SM BKN200=



000
FTUS41 KBUF 051120
TAFROC
TAF
KROC 051120Z 0512/0612 08010KT P6SM OVC040
     FM051500 04010KT P6SM BKN040
     FM051700 03012KT P6SM BKN060
     FM052300 36008KT P6SM BKN040
     FM060300 34006KT P6SM BKN040
     FM060900 34005KT P6SM BKN090=



000
FTUS41 KBUF 051120
TAFJHW
TAF
KJHW 051120Z 0512/0612 04006KT P6SM VCSH OVC040
     FM051300 03006KT P6SM VCSH OVC015
     FM051600 02011KT P6SM VCTS BKN035CB
     FM052300 01010KT P6SM BKN035
     FM060300 36005KT P6SM BKN035
     FM061100 01007KT P6SM BKN080
      AMD LTD TO CLD VIS AND WIND=



000
FTUS41 KBUF 051019 AAC
TAFBUF
TAF AMD
KBUF 051019Z 0510/0606 03007KT 1/4SM FG OVC002
      TEMPO 0510/0512 1SM BR SCT002 OVC005
     FM051200 03007KT P6SM OVC005
     FM051300 04007KT P6SM BKN012
     FM051400 05008KT P6SM BKN025
     FM051600 04012KT P6SM BKN040
     FM052300 02008KT P6SM BKN040
     FM060300 35004KT P6SM BKN040=



000
FTUS41 KBUF 051019 AAC
TAFBUF
TAF AMD
KBUF 051019Z 0510/0606 03007KT 1/4SM FG OVC002
      TEMPO 0510/0512 1SM BR SCT002 OVC005
     FM051200 03007KT P6SM OVC005
     FM051300 04007KT P6SM BKN012
     FM051400 05008KT P6SM BKN025
     FM051600 04012KT P6SM BKN040
     FM052300 02008KT P6SM BKN040
     FM060300 35004KT P6SM BKN040=



000
FTUS41 KBUF 050946 AAB
TAFBUF
TAF AMD
KBUF 050946Z 0510/0606 03007KT 2SM BR OVC002
      TEMPO 0510/0511 1/4SM FG
     FM051200 03007KT P6SM OVC005
     FM051300 04007KT P6SM BKN012
     FM051400 05008KT P6SM BKN025
     FM051600 04012KT P6SM BKN040
     FM052300 02008KT P6SM BKN040
     FM060300 35004KT P6SM BKN040=



000
FTUS41 KBUF 050904 AAB
TAFBUF
TAF AMD
KBUF 050904Z 0509/0606 02006KT P6SM BKN005 OVC100
     FM051300 04006KT P6SM BKN012
     FM051400 05008KT P6SM BKN025
     FM051600 04012KT P6SM BKN040
     FM052300 02008KT P6SM BKN040
     FM060300 35004KT P6SM BKN040=



000
FTUS41 KBUF 050904 AAA
TAFJHW
TAF AMD
KJHW 050904Z 0509/0606 VRB03KT P6SM VCSH BKN015
     FM051600 02012KT P6SM VCSH BKN035
     FM052300 01010KT P6SM BKN035
     FM060300 36005KT P6SM BKN035
      AMD LTD TO CLD VIS AND WIND=



000
FTUS41 KBUF 050904 AAA
TAFIAG
TAF AMD
KIAG 050904Z 0509/0606 04007KT P6SM BKN005 BKN100
     FM051200 04007KT P6SM BKN012
     FM051300 04009KT P6SM BKN025
     FM051500 04012KT P6SM BKN040
     FM052300 02007KT P6SM BKN040
     FM060300 34005KT P6SM BKN050=



000
FTUS41 KBUF 050904 AAB
TAFART
TAF AMD
KART 050904Z 0509/0606 VRB03KT P6SM OVC050
      TEMPO 0509/0511 3SM BR
     FM051200 05005KT P6SM BKN045
      TEMPO 0514/0517 BKN030
     FM051700 03012KT P6SM BKN045
     FM060000 03008KT P6SM BKN045
     FM060300 04005KT P6SM BKN060=



000
FTUS41 KBUF 050904 AAA
TAFJHW
TAF AMD
KJHW 050904Z 0509/0606 VRB03KT P6SM VCSH BKN015
     FM051600 02012KT P6SM VCSH BKN035
     FM052300 01010KT P6SM BKN035
     FM060300 36005KT P6SM BKN035
      AMD LTD TO CLD VIS AND WIND=



000
FTUS41 KBUF 050904 AAA
TAFROC
TAF AMD
KROC 050904Z 0509/0606 09005KT P6SM SCT025 OVC035
      TEMPO 0509/0513 BKN025
     FM051300 06008KT P6SM BKN040
     FM051700 03013KT P6SM BKN070
     FM052300 36008KT P6SM BKN040
     FM060300 33005KT P6SM BKN040=



000
FTUS41 KBUF 050904 AAB
TAFBUF
TAF AMD
KBUF 050904Z 0509/0606 02006KT P6SM BKN005 OVC100
     FM051300 04006KT P6SM BKN012
     FM051400 05008KT P6SM BKN025
     FM051600 04012KT P6SM BKN040
     FM052300 02008KT P6SM BKN040
     FM060300 35004KT P6SM BKN040=



000
FTUS41 KBUF 050904 AAA
TAFIAG
TAF AMD
KIAG 050904Z 0509/0606 04007KT P6SM BKN005 BKN100
     FM051200 04007KT P6SM BKN012
     FM051300 04009KT P6SM BKN025
     FM051500 04012KT P6SM BKN040
     FM052300 02007KT P6SM BKN040
     FM060300 34005KT P6SM BKN050=



000
FTUS41 KBUF 050904 AAB
TAFART
TAF AMD
KART 050904Z 0509/0606 VRB03KT P6SM OVC050
      TEMPO 0509/0511 3SM BR
     FM051200 05005KT P6SM BKN045
      TEMPO 0514/0517 BKN030
     FM051700 03012KT P6SM BKN045
     FM060000 03008KT P6SM BKN045
     FM060300 04005KT P6SM BKN060=



000
FTUS41 KBUF 050904 AAA
TAFROC
TAF AMD
KROC 050904Z 0509/0606 09005KT P6SM SCT025 OVC035
      TEMPO 0509/0513 BKN025
     FM051300 06008KT P6SM BKN040
     FM051700 03013KT P6SM BKN070
     FM052300 36008KT P6SM BKN040
     FM060300 33005KT P6SM BKN040=



000
FTUS41 KBUF 050719 AAA
TAFART
TAF AMD
KART 050719Z 0507/0606 VRB03KT 3SM BR BKN070
      TEMPO 0507/0511 3/4SM BR
     FM051200 05005KT P6SM BKN045
      TEMPO 0514/0517 BKN030
     FM051700 03012KT P6SM BKN045
     FM060000 03008KT P6SM BKN045
     FM060300 04005KT P6SM BKN060=



000
FTUS41 KBUF 050719 AAA
TAFART
TAF AMD
KART 050719Z 0507/0606 VRB03KT 3SM BR BKN070
      TEMPO 0507/0511 3/4SM BR
     FM051200 05005KT P6SM BKN045
      TEMPO 0514/0517 BKN030
     FM051700 03012KT P6SM BKN045
     FM060000 03008KT P6SM BKN045
     FM060300 04005KT P6SM BKN060=



000
FTUS41 KBUF 050535
TAFART
TAF
KART 050535Z 0506/0606 VRB03KT P6SM BKN050
     FM051200 05005KT P6SM BKN045
      TEMPO 0514/0517 BKN030
     FM051700 03012KT P6SM BKN045
     FM060000 03008KT P6SM BKN045
     FM060300 04005KT P6SM BKN060=



000
FTUS41 KBUF 050535
TAFROC
TAF
KROC 050535Z 0506/0606 07004KT P6SM BKN080
     FM050900 06004KT P6SM OVC025
     FM051300 06008KT P6SM BKN040
     FM051700 03013KT P6SM BKN070
     FM052300 36008KT P6SM BKN040
     FM060300 33005KT P6SM BKN040=



000
FTUS41 KBUF 050535
TAFBUF
TAF
KBUF 050535Z 0506/0606 05005KT P6SM BKN100
     FM050900 05005KT P6SM BKN012
     FM051400 05008KT P6SM BKN025
     FM051600 04012KT P6SM BKN040
     FM052300 02008KT P6SM BKN040
     FM060300 35004KT P6SM BKN040=



000
FTUS41 KBUF 050535
TAFJHW
TAF
KJHW 050535Z 0506/0606 10004KT P6SM BKN090
     FM050900 VRB03KT P6SM VCSH BKN015
     FM051600 02012KT P6SM VCSH BKN035
     FM052300 01010KT P6SM BKN035
     FM060300 36005KT P6SM BKN035
      AMD LTD TO CLD VIS AND WIND=



000
FTUS41 KBUF 050535
TAFJHW
TAF
KJHW 050535Z 0506/0606 10004KT P6SM BKN090
     FM050900 VRB03KT P6SM VCSH BKN015
     FM051600 02012KT P6SM VCSH BKN035
     FM052300 01010KT P6SM BKN035
     FM060300 36005KT P6SM BKN035
      AMD LTD TO CLD VIS AND WIND=



000
FTUS41 KBUF 050535
TAFIAG
TAF
KIAG 050535Z 0506/0606 04006KT P6SM BKN100
     FM050900 04006KT P6SM BKN012
     FM051300 04009KT P6SM BKN025
     FM051500 04012KT P6SM BKN040
     FM052300 02007KT P6SM BKN040
     FM060300 34005KT P6SM BKN050=



000
FTUS41 KBUF 050535
TAFBUF
TAF
KBUF 050535Z 0506/0606 05005KT P6SM BKN100
     FM050900 05005KT P6SM BKN012
     FM051400 05008KT P6SM BKN025
     FM051600 04012KT P6SM BKN040
     FM052300 02008KT P6SM BKN040
     FM060300 35004KT P6SM BKN040=



000
FTUS41 KBUF 050535
TAFART
TAF
KART 050535Z 0506/0606 VRB03KT P6SM BKN050
     FM051200 05005KT P6SM BKN045
      TEMPO 0514/0517 BKN030
     FM051700 03012KT P6SM BKN045
     FM060000 03008KT P6SM BKN045
     FM060300 04005KT P6SM BKN060=



000
FTUS41 KBUF 050535
TAFROC
TAF
KROC 050535Z 0506/0606 07004KT P6SM BKN080
     FM050900 06004KT P6SM OVC025
     FM051300 06008KT P6SM BKN040
     FM051700 03013KT P6SM BKN070
     FM052300 36008KT P6SM BKN040
     FM060300 33005KT P6SM BKN040=



000
FTUS41 KBUF 050535
TAFIAG
TAF
KIAG 050535Z 0506/0606 04006KT P6SM BKN100
     FM050900 04006KT P6SM BKN012
     FM051300 04009KT P6SM BKN025
     FM051500 04012KT P6SM BKN040
     FM052300 02007KT P6SM BKN040
     FM060300 34005KT P6SM BKN050=



000
FTUS41 KBUF 050250 AAD
TAFART
TAF AMD
KART 050250Z 0503/0524 VRB04KT P6SM BKN050
      TEMPO 0503/0505 2SM BR
     FM051300 05010KT P6SM BKN070=



000
FTUS41 KBUF 050250 AAD
TAFART
TAF AMD
KART 050250Z 0503/0524 VRB04KT P6SM BKN050
      TEMPO 0503/0505 2SM BR
     FM051300 05010KT P6SM BKN070=



000
FTUS41 KBUF 050237 AAA
TAFIAG
TAF AMD
KIAG 050237Z 0503/0524 04006KT P6SM BKN080
     FM050800 04005KT 3SM BR BKN008
     FM051300 05014G20KT P6SM BKN040=



000
FTUS41 KBUF 050237 AAA
TAFJHW
TAF AMD
KJHW 050237Z 0503/0524 04005KT P6SM BKN060
     FM050800 VRB03KT 3SM BR SCT007 BKN025
     FM051300 06008KT P6SM BKN035
     FM051700 02010KT P6SM VCSH OVC025
      AMD LTD TO CLD VIS AND WIND=



000
FTUS41 KBUF 050237 AAA
TAFROC
TAF AMD
KROC 050237Z 0503/0524 07006KT P6SM BKN080
     FM050400 VRB03KT P6SM SCT080 BKN200
     FM050800 09004KT P6SM SCT008 BKN100
     FM051400 06012KT P6SM BKN040
     FM052000 02012KT P6SM BKN040=



000
FTUS41 KBUF 050237 AAC
TAFART
TAF AMD
KART 050237Z 0503/0524 VRB04KT P6SM BKN050
     FM051300 05010KT P6SM BKN070=



000
FTUS41 KBUF 050237 AAC
TAFBUF
TAF AMD
KBUF 050237Z 0503/0524 06006KT P6SM BKN080
     FM050900 05005KT 6SM BR BKN008
     FM051300 05012KT P6SM BKN040=



000
FTUS41 KBUF 050025 AAB
TAFART
TAF AMD
KART 050025Z 0500/0524 08005KT P6SM VCSH OVC040
     FM051300 05010KT P6SM BKN070=



000
FTUS41 KBUF 050025 AAB
TAFART
TAF AMD
KART 050025Z 0500/0524 08005KT P6SM VCSH OVC040
     FM051300 05010KT P6SM BKN070=



000
FTUS41 KBUF 050002 AAA
TAFART
TAF AMD
KART 050002Z 0500/0524 08008KT 2SM -SHRA OVC025
     FM050030 09005KT P6SM OVC040
     FM051300 05010KT P6SM BKN070=



000
FTUS41 KBUF 050002 AAA
TAFART
TAF AMD
KART 050002Z 0500/0524 08008KT 2SM -SHRA OVC025
     FM050030 09005KT P6SM OVC040
     FM051300 05010KT P6SM BKN070=



000
FTUS41 KBUF 042339
TAFBUF
TAF
KBUF 042339Z 0500/0524 05008KT P6SM BKN080
     FM050300 06006KT P6SM SCT080
     FM050800 05005KT 3SM BR BKN008
     FM051300 05012KT P6SM BKN040=



000
FTUS41 KBUF 042339
TAFJHW
TAF
KJHW 042339Z 0500/0524 04005KT P6SM BKN060
     FM050600 VRB03KT 3SM BR SCT007 BKN025
     FM051300 06008KT P6SM BKN035
     FM051700 02010KT P6SM VCSH OVC025
      AMD LTD TO CLD VIS AND WIND=



000
FTUS41 KBUF 042339
TAFROC
TAF
KROC 042339Z 0500/0524 07008KT P6SM BKN080
     FM050400 VRB03KT P6SM SCT080 BKN200
     FM050800 09004KT P6SM SCT008 BKN100
     FM051400 06012KT P6SM BKN040
     FM052000 02012KT P6SM BKN040=



000
FTUS41 KBUF 042339
TAFIAG
TAF
KIAG 042339Z 0500/0524 06008KT P6SM BKN080
     FM050300 04006KT P6SM SCT080
     FM050800 04005KT 3SM BR BKN008
     FM051300 05014G20KT P6SM BKN040=



000
FTUS41 KBUF 042339
TAFART
TAF
KART 042339Z 0500/0524 08008KT P6SM -SHRA OVC025
     FM050100 09005KT P6SM OVC040
     FM051300 05010KT P6SM BKN070=



000
FTUS41 KBUF 042024 AAA
TAFART
TAF AMD
KART 042024Z 0420/0518 04008KT P6SM VCSH SCT025 BKN100
     FM042200 07007KT P6SM -SHRA BKN025
     FM050000 10006KT P6SM SCT035 OVC045
     FM050600 06004KT P6SM SCT035 OVC045=



000
FTUS41 KBUF 042024 AAA
TAFIAG
TAF AMD
KIAG 042024Z 0420/0518 03010KT P6SM BKN060
     FM050000 06006KT P6SM SCT040
     FM050700 04005KT P6SM SCT008 BKN150
     FM051400 05010KT P6SM SCT020 OVC060
     FM051500 05012G18KT P6SM SCT025 OVC060=



000
FTUS41 KBUF 042024 AAA
TAFBUF
TAF AMD
KBUF 042024Z 0420/0518 03010KT P6SM BKN060
     FM050000 05006KT P6SM SCT040
     FM050700 04005KT P6SM SCT008 BKN150
     FM051200 06006KT P6SM SCT015 OVC070
     FM051500 05011KT P6SM SCT035 OVC070=



000
FTUS41 KBUF 042024 AAA
TAFJHW
TAF AMD
KJHW 042024Z 0420/0518 VRB03KT P6SM BKN080
     FM042200 04008KT P6SM VCSH BKN040
     FM050300 08008KT P6SM SCT025
     FM050600 10004KT P6SM SCT007 OVC060
     FM051400 06007KT P6SM SCT015 OVC060
     FM051500 05008KT P6SM VCSH SCT015 OVC035
      AMD LTD TO CLD VIS AND WIND=



000
FTUS41 KBUF 042024 AAA
TAFROC
TAF AMD
KROC 042024Z 0420/0518 04010KT P6SM BKN080
     FM050200 VRB03KT P6SM SCT035 BKN200
     FM050700 08004KT P6SM SCT015 BKN100
     FM051300 07008KT P6SM SCT035 OVC060
     FM051600 05012KT P6SM SCT060 OVC070=



000
FTUS41 KBUF 041740
TAFBUF
TAF
KBUF 041740Z 0418/0518 05006KT P6SM SCT040 BKN060
     FM042200 05007KT P6SM SCT045 BKN200
     FM050800 04005KT P6SM SCT015 BKN150
     FM051200 06006KT P6SM SCT015 OVC070
     FM051500 05011KT P6SM SCT035 OVC070=



000
FTUS41 KBUF 041740
TAFJHW
TAF
KJHW 041740Z 0418/0518 VRB03KT P6SM VCSH SCT045 BKN060
     FM042300 04009KT P6SM VCSH SCT045 BKN050
     FM050300 08008KT P6SM VCSH SCT035 BKN060
     FM050700 10004KT P6SM SCT007 OVC060
     FM051400 06007KT P6SM SCT015 OVC060
     FM051500 05008KT P6SM VCSH SCT015 OVC035
      AMD LTD TO CLD VIS AND WIND=



000
FTUS41 KBUF 041740
TAFROC
TAF
KROC 041740Z 0418/0518 04007KT P6SM SCT040 BKN080
     FM050400 VRB03KT P6SM SCT035 BKN200
     FM050700 08004KT P6SM SCT025 OVC090
     FM051300 07008KT P6SM SCT035 OVC060
     FM051600 05012KT P6SM SCT060 OVC070=



000
FTUS41 KBUF 041740
TAFIAG
TAF
KIAG 041740Z 0418/0518 04007KT P6SM SCT040 BKN200
     FM050200 06006KT P6SM BKN200
     FM051000 04005KT P6SM SCT007 BKN140
     FM051400 05010KT P6SM SCT020 OVC060
     FM051500 05012G18KT P6SM SCT025 OVC060=



000
FTUS41 KBUF 041740
TAFART
TAF
KART 041740Z 0418/0518 04004KT P6SM VCSH SCT020 OVC050
     FM042000 05007KT 6SM -SHRA SCT020 OVC050
     FM042300 07007KT P6SM VCSH SCT025 OVC045
     FM050200 10006KT P6SM SCT035 OVC045
     FM050600 06004KT P6SM SCT035 OVC045=



000
FTUS41 KBUF 041406 AAB
TAFJHW
TAF AMD
KJHW 041406Z 0414/0512 VRB03KT P6SM SCT060
     FM041800 03005KT P6SM VCSH BKN045
     FM050200 VRB03KT P6SM BKN045
     FM050800 VRB03KT P6SM OVC035
      AMD LTD TO CLD VIS AND WIND=



000
FTUS41 KBUF 041233 AAA
TAFJHW
TAF AMD
KJHW 041233Z 0413/0512 00000KT 1/4SM FG OVC001
      TEMPO 0413/0414 2SM BR BKN005
     FM041500 VRB03KT P6SM BKN060
     FM041800 03005KT P6SM VCSH BKN045
     FM050200 VRB03KT P6SM BKN045
     FM050800 VRB03KT P6SM OVC035
      AMD LTD TO CLD VIS AND WIND=



000
FTUS41 KBUF 041233 AAA
TAFJHW
TAF AMD
KJHW 041233Z 0413/0512 00000KT 1/4SM FG OVC001
      TEMPO 0413/0414 2SM BR BKN005
     FM041500 VRB03KT P6SM BKN060
     FM041800 03005KT P6SM VCSH BKN045
     FM050200 VRB03KT P6SM BKN045
     FM050800 VRB03KT P6SM OVC035
      AMD LTD TO CLD VIS AND WIND=



000
FTUS41 KBUF 041120
TAFJHW
TAF
KJHW 041120Z 0412/0512 VRB03KT P6SM SCT020
     FM041300 VRB03KT P6SM BKN200
     FM041500 VRB03KT P6SM BKN060
     FM041800 03005KT P6SM VCSH BKN045
     FM050200 VRB03KT P6SM BKN045
     FM050800 VRB03KT P6SM OVC035
      AMD LTD TO CLD VIS AND WIND=



000
FTUS41 KBUF 041120
TAFROC
TAF
KROC 041120Z 0412/0512 VRB03KT P6SM SCT200
     FM041500 09004KT P6SM BKN070
     FM041800 06010KT P6SM BKN050
     FM050000 08006KT P6SM BKN060
     FM050600 07004KT P6SM OVC040
     FM050900 06004KT P6SM OVC025=



000
FTUS41 KBUF 041120
TAFROC
TAF
KROC 041120Z 0412/0512 VRB03KT P6SM SCT200
     FM041500 09004KT P6SM BKN070
     FM041800 06010KT P6SM BKN050
     FM050000 08006KT P6SM BKN060
     FM050600 07004KT P6SM OVC040
     FM050900 06004KT P6SM OVC025=



000
FTUS41 KBUF 041120
TAFBUF
TAF
KBUF 041120Z 0412/0512 VRB03KT P6SM SCT200
     FM041500 09005KT P6SM BKN070
     FM041800 06010KT P6SM BKN050
     FM050000 05007KT P6SM BKN100
     FM050900 05005KT P6SM BKN040=



000
FTUS41 KBUF 041120
TAFART
TAF
KART 041120Z 0412/0512 VRB03KT P6SM OVC050
     FM041500 VRB03KT P6SM BKN050
     FM050000 VRB04KT P6SM OVC045=



000
FTUS41 KBUF 041120
TAFART
TAF
KART 041120Z 0412/0512 VRB03KT P6SM OVC050
     FM041500 VRB03KT P6SM BKN050
     FM050000 VRB04KT P6SM OVC045=



000
FTUS41 KBUF 041120
TAFIAG
TAF
KIAG 041120Z 0412/0512 VRB03KT P6SM SCT200
     FM041600 09006KT P6SM BKN060
     FM041800 05010KT P6SM BKN050
     FM042300 05008KT P6SM BKN200
     FM050800 05006KT P6SM BKN100=



000
FTUS41 KBUF 041120
TAFBUF
TAF
KBUF 041120Z 0412/0512 VRB03KT P6SM SCT200
     FM041500 09005KT P6SM BKN070
     FM041800 06010KT P6SM BKN050
     FM050000 05007KT P6SM BKN100
     FM050900 05005KT P6SM BKN040=



000
FTUS41 KBUF 041120
TAFJHW
TAF
KJHW 041120Z 0412/0512 VRB03KT P6SM SCT020
     FM041300 VRB03KT P6SM BKN200
     FM041500 VRB03KT P6SM BKN060
     FM041800 03005KT P6SM VCSH BKN045
     FM050200 VRB03KT P6SM BKN045
     FM050800 VRB03KT P6SM OVC035
      AMD LTD TO CLD VIS AND WIND=



000
FTUS41 KBUF 041120
TAFIAG
TAF
KIAG 041120Z 0412/0512 VRB03KT P6SM SCT200
     FM041600 09006KT P6SM BKN060
     FM041800 05010KT P6SM BKN050
     FM042300 05008KT P6SM BKN200
     FM050800 05006KT P6SM BKN100=



000
FTUS41 KBUF 040901 AAA
TAFART
TAF AMD
KART 040901Z 0409/0506 VRB03KT P6SM OVC050
     FM041200 VRB03KT P6SM BKN050
     FM050000 11004KT P6SM OVC045=



000
FTUS41 KBUF 040901 AAA
TAFART
TAF AMD
KART 040901Z 0409/0506 VRB03KT P6SM OVC050
     FM041200 VRB03KT P6SM BKN050
     FM050000 11004KT P6SM OVC045=



000
FTUS41 KBUF 040901 AAA
TAFIAG
TAF AMD
KIAG 040901Z 0409/0506 VRB03KT P6SM FEW100
     FM041400 10005KT P6SM BKN080
     FM041800 05010KT P6SM BKN050
     FM042300 05008KT P6SM BKN200=



000
FTUS41 KBUF 040901 AAB
TAFBUF
TAF AMD
KBUF 040901Z 0409/0506 16004KT P6SM FEW100
     FM041400 10004KT P6SM BKN080
     FM041800 06010KT P6SM BKN050
     FM050100 07006KT P6SM SCT050 BKN200=



000
FTUS41 KBUF 040901 AAB
TAFJHW
TAF AMD
KJHW 040901Z 0409/0506 VRB03KT 2SM BR BKN005
      TEMPO 0409/0411 1/4SM FG VV001
     FM041200 VRB03KT P6SM SCT060
     FM041800 VRB03KT P6SM VCSH BKN045
     FM042000 03006KT P6SM VCSH BKN045
     FM050200 06004KT P6SM BKN050
      AMD LTD TO CLD VIS AND WIND=



000
FTUS41 KBUF 040901 AAA
TAFROC
TAF AMD
KROC 040901Z 0409/0506 VRB03KT P6SM SCT100
     FM041500 09005KT P6SM BKN070
     FM041800 06010KT P6SM BKN050
     FM050100 08005KT P6SM BKN080=



000
FTUS41 KBUF 040844 AAA
TAFJHW
TAF AMD
KJHW 040844Z 0409/0506 VRB03KT 2SM BR BKN005
      TEMPO 0409/0411 1/2SM FG
     FM041200 VRB03KT P6SM SCT060
     FM041800 VRB03KT P6SM VCSH BKN045
     FM042000 03006KT P6SM VCSH BKN045
     FM050200 06004KT P6SM BKN050
      AMD LTD TO CLD VIS AND WIND=



000
FTUS41 KBUF 040535
TAFBUF
TAF
KBUF 040535Z 0406/0506 21005KT P6SM BKN090
     FM040900 VRB03KT P6SM BKN090
     FM041400 10004KT P6SM BKN070
     FM041800 06010KT P6SM BKN050
     FM050100 07006KT P6SM SCT050 BKN200=



000
FTUS41 KBUF 040535
TAFART
TAF
KART 040535Z 0406/0506 VRB03KT P6SM OVC050
     FM041200 VRB03KT P6SM BKN050
     FM050000 11004KT P6SM OVC045=



000
FTUS41 KBUF 040535
TAFIAG
TAF
KIAG 040535Z 0406/0506 20004KT P6SM BKN100
     FM040900 VRB03KT P6SM BKN090
     FM041400 10005KT P6SM BKN080
     FM041800 05010KT P6SM BKN050
     FM042300 05008KT P6SM BKN200=



000
FTUS41 KBUF 040535
TAFROC
TAF
KROC 040535Z 0406/0506 VRB03KT P6SM BKN100
     FM041500 09005KT P6SM BKN070
     FM041800 06010KT P6SM BKN050
     FM050100 08005KT P6SM BKN080=



000
FTUS41 KBUF 040535
TAFJHW
TAF
KJHW 040535Z 0406/0506 VRB03KT P6SM BKN070
     FM040800 VRB03KT 2SM BR SCT060
     FM041200 VRB03KT P6SM BKN060
     FM041800 VRB03KT P6SM VCSH BKN045
     FM042000 03006KT P6SM VCSH BKN045
     FM050200 06004KT P6SM BKN050
      AMD LTD TO CLD VIS AND WIND=



000
FTUS41 KBUF 040535
TAFJHW
TAF
KJHW 040535Z 0406/0506 VRB03KT P6SM BKN070
     FM040800 VRB03KT 2SM BR SCT060
     FM041200 VRB03KT P6SM BKN060
     FM041800 VRB03KT P6SM VCSH BKN045
     FM042000 03006KT P6SM VCSH BKN045
     FM050200 06004KT P6SM BKN050
      AMD LTD TO CLD VIS AND WIND=



000
FTUS41 KBUF 040535
TAFART
TAF
KART 040535Z 0406/0506 VRB03KT P6SM OVC050
     FM041200 VRB03KT P6SM BKN050
     FM050000 11004KT P6SM OVC045=



000
FTUS41 KBUF 040535
TAFROC
TAF
KROC 040535Z 0406/0506 VRB03KT P6SM BKN100
     FM041500 09005KT P6SM BKN070
     FM041800 06010KT P6SM BKN050
     FM050100 08005KT P6SM BKN080=



000
FTUS41 KBUF 040535
TAFBUF
TAF
KBUF 040535Z 0406/0506 21005KT P6SM BKN090
     FM040900 VRB03KT P6SM BKN090
     FM041400 10004KT P6SM BKN070
     FM041800 06010KT P6SM BKN050
     FM050100 07006KT P6SM SCT050 BKN200=



000
FTUS41 KBUF 040535
TAFIAG
TAF
KIAG 040535Z 0406/0506 20004KT P6SM BKN100
     FM040900 VRB03KT P6SM BKN090
     FM041400 10005KT P6SM BKN080
     FM041800 05010KT P6SM BKN050
     FM042300 05008KT P6SM BKN200=



000
FTUS41 KBUF 040243 AAB
TAFBUF
TAF AMD
KBUF 040243Z 0403/0424 23005KT P6SM BKN060
     FM040500 VRB03KT P6SM SCT060
     FM041200 VRB03KT P6SM BKN050
     FM041800 04008KT P6SM BKN100=



000
FTUS41 KBUF 040243 AAA
TAFIAG
TAF AMD
KIAG 040243Z 0403/0424 VRB03KT P6SM BKN060
     FM040500 VRB03KT P6SM SCT060
     FM041000 VRB03KT P6SM BKN040
     FM041800 04008KT P6SM BKN100=



000
FTUS41 KBUF 040243 AAA
TAFART
TAF AMD
KART 040243Z 0403/0424 VRB03KT P6SM BKN060
     FM040500 VRB03KT P6SM SCT060
     FM041200 VRB03KT P6SM OVC035
     FM041600 04005KT P6SM VCSH OVC035=



000
FTUS41 KBUF 040243 AAA
TAFROC
TAF AMD
KROC 040243Z 0403/0424 VRB03KT P6SM BKN060
     FM041200 VRB03KT P6SM BKN040
     FM041900 05007KT P6SM VCSH BKN035=



000
FTUS41 KBUF 040243 AAB
TAFJHW
TAF AMD
KJHW 040243Z 0403/0424 VRB03KT P6SM SCT025
     FM040800 VRB03KT 2SM BR BKN007
     FM041100 VRB03KT P6SM BKN025
     FM041400 17005KT P6SM BKN060
     FM041900 03008KT P6SM VCSH BKN035
      AMD LTD TO CLD VIS AND WIND=



000
FTUS41 KBUF 040104 AAA
TAFJHW
TAF AMD
KJHW 040104Z 0401/0424 VRB03KT P6SM BKN040
     FM040400 VRB03KT P6SM SCT025
     FM040800 VRB03KT 2SM BR BKN007
     FM041100 VRB03KT P6SM BKN025
     FM041400 17005KT P6SM BKN060
     FM041900 03008KT P6SM VCSH BKN035
      AMD LTD TO CLD VIS AND WIND=



000
FTUS41 KBUF 032328
TAFROC
TAF
KROC 032328Z 0400/0424 VRB03KT P6SM BKN060
     FM040300 VRB03KT P6SM SCT060
     FM041200 VRB03KT P6SM BKN040
     FM041900 05007KT P6SM VCSH BKN035=



000
FTUS41 KBUF 032328
TAFBUF
TAF
KBUF 032328Z 0400/0424 VRB03KT P6SM BKN060
     FM040200 VRB03KT P6SM SCT060
     FM041200 VRB03KT P6SM BKN050
     FM041800 04008KT P6SM BKN100=



000
FTUS41 KBUF 032328
TAFJHW
TAF
KJHW 032328Z 0400/0424 VRB03KT P6SM BKN025
     FM040400 VRB03KT P6SM SCT025
     FM040800 VRB03KT 2SM BR BKN007
     FM041100 VRB03KT P6SM BKN025
     FM041400 17005KT P6SM BKN060
     FM041900 03008KT P6SM VCSH BKN035
      AMD LTD TO CLD VIS AND WIND=



000
FTUS41 KBUF 032328
TAFIAG
TAF
KIAG 032328Z 0400/0424 35005KT P6SM BKN060
     FM040200 VRB03KT P6SM SCT060
     FM041000 VRB03KT P6SM BKN040
     FM041800 04008KT P6SM BKN100=



000
FTUS41 KBUF 032328
TAFART
TAF
KART 032328Z 0400/0424 22005KT P6SM BKN060
     FM040300 VRB03KT P6SM SCT060
     FM041200 VRB03KT P6SM OVC035
     FM041600 04005KT P6SM VCSH OVC035=



000
FTUS41 KBUF 032121 AAB
TAFJHW
TAF AMD
KJHW 032121Z 0321/0418 VRB03KT P6SM BKN025
     FM040700 VRB03KT P6SM BKN010
     FM040900 VRB03KT 1 1/2SM BR BKN007
     FM041100 VRB03KT P6SM BKN025
     FM041400 17005KT P6SM BKN060
      AMD LTD TO CLD VIS AND WIND=



000
FTUS41 KBUF 032042 AAA
TAFART
TAF AMD
KART 032042Z 0321/0418 VRB05KT P6SM FEW040
     FM040200 VRB03KT P6SM SCT050
     FM041200 15004KT P6SM OVC035=



000
FTUS41 KBUF 032042 AAA
TAFJHW
TAF AMD
KJHW 032042Z 0321/0418 36005KT P6SM OVC015
     FM040000 VRB03KT P6SM BKN025
     FM040700 VRB03KT P6SM BKN010
     FM040900 VRB03KT 1 1/2SM BR BKN007
     FM041100 VRB03KT P6SM BKN025
     FM041400 17005KT P6SM BKN060
      AMD LTD TO CLD VIS AND WIND=



000
FTUS41 KBUF 032042 AAA
TAFBUF
TAF AMD
KBUF 032042Z 0321/0418 VRB03KT P6SM BKN050
     FM040100 VRB03KT P6SM SCT050
     FM041500 02004KT P6SM BKN050=



000
FTUS41 KBUF 032042 AAA
TAFIAG
TAF AMD
KIAG 032042Z 0321/0418 VRB03KT P6SM BKN050
     FM040000 VRB03KT P6SM SCT040
     FM040800 VRB03KT P6SM BKN050
     FM041400 21004KT P6SM OVC035=



000
FTUS41 KBUF 032042 AAA
TAFROC
TAF AMD
KROC 032042Z 0321/0418 03006KT P6SM BKN060
     FM040000 04003KT P6SM SCT060
     FM040200 VRB03KT P6SM BKN100
     FM041100 22003KT P6SM OVC035=



000
FTUS41 KBUF 031729
TAFJHW
TAF
KJHW 031729Z 0318/0418 35004KT P6SM OVC015
     FM040000 VRB03KT P6SM BKN025
     FM040700 VRB03KT P6SM BKN010
     FM040900 VRB03KT 1 1/2SM BR BKN007
     FM041100 VRB03KT P6SM BKN025
     FM041400 17005KT P6SM BKN060
      AMD LTD TO CLD VIS AND WIND=



000
FTUS41 KBUF 031729
TAFIAG
TAF
KIAG 031729Z 0318/0418 06006KT P6SM BKN035
     FM032300 04004KT P6SM SCT035
     FM040200 VRB03KT P6SM FEW040
     FM040800 VRB03KT P6SM BKN050
     FM041400 21004KT P6SM OVC035=



000
FTUS41 KBUF 031729
TAFART
TAF
KART 031729Z 0318/0418 04006KT P6SM SCT030
     FM032000 03005KT P6SM FEW035
     FM040200 VRB03KT P6SM SCT050
     FM041200 15004KT P6SM OVC035=



000
FTUS41 KBUF 031729
TAFBUF
TAF
KBUF 031729Z 0318/0418 06007KT P6SM BKN035
     FM032300 04003KT P6SM SCT035
     FM040200 19003KT P6SM SCT050
     FM041500 02004KT P6SM BKN050=



000
FTUS41 KBUF 031729
TAFROC
TAF
KROC 031729Z 0318/0418 07008KT P6SM BKN035
     FM040000 04003KT P6SM SCT070
     FM040200 02003KT P6SM BKN100
     FM040600 22003KT P6SM BKN100
     FM041100 22003KT P6SM OVC035=



000
FTUS41 KBUF 031729
TAFROC
TAF
KROC 031729Z 0318/0418 07008KT P6SM BKN035
     FM040000 04003KT P6SM SCT070
     FM040200 02003KT P6SM BKN100
     FM040600 22003KT P6SM BKN100
     FM041100 22003KT P6SM OVC035=



000
FTUS41 KBUF 031729
TAFART
TAF
KART 031729Z 0318/0418 04006KT P6SM SCT030
     FM032000 03005KT P6SM FEW035
     FM040200 VRB03KT P6SM SCT050
     FM041200 15004KT P6SM OVC035=



000
FTUS41 KBUF 031729
TAFBUF
TAF
KBUF 031729Z 0318/0418 06007KT P6SM BKN035
     FM032300 04003KT P6SM SCT035
     FM040200 19003KT P6SM SCT050
     FM041500 02004KT P6SM BKN050=



000
FTUS41 KBUF 031729
TAFJHW
TAF
KJHW 031729Z 0318/0418 35004KT P6SM OVC015
     FM040000 VRB03KT P6SM BKN025
     FM040700 VRB03KT P6SM BKN010
     FM040900 VRB03KT 1 1/2SM BR BKN007
     FM041100 VRB03KT P6SM BKN025
     FM041400 17005KT P6SM BKN060
      AMD LTD TO CLD VIS AND WIND=



000
FTUS41 KBUF 031729
TAFIAG
TAF
KIAG 031729Z 0318/0418 06006KT P6SM BKN035
     FM032300 04004KT P6SM SCT035
     FM040200 VRB03KT P6SM FEW040
     FM040800 VRB03KT P6SM BKN050
     FM041400 21004KT P6SM OVC035=



000
FTUS41 KBUF 031432 AAA
TAFIAG
TAF AMD
KIAG 031432Z 0315/0412 06008KT P6SM SCT015
     FM031600 07006KT P6SM BKN020
     FM032000 02006KT P6SM SCT050
     FM040200 22004KT P6SM SCT070
     FM040800 18006KT P6SM SCT250=



000
FTUS41 KBUF 031432 AAB
TAFBUF
TAF AMD
KBUF 031432Z 0315/0412 07007KT P6SM SCT015
     FM031600 06007KT P6SM BKN020
     FM032300 VRB03KT P6SM SCT035
     FM040300 21006KT P6SM SCT070
     FM040900 17006KT P6SM BKN250=



000
FTUS41 KBUF 031432 AAB
TAFART
TAF AMD
KART 031432Z 0315/0412 04007KT P6SM BKN015
     FM031700 35004KT P6SM SCT020
     FM040000 26005KT P6SM SCT045
     FM040200 23004KT P6SM BKN040=



000
FTUS41 KBUF 031432 AAA
TAFJHW
TAF AMD
KJHW 031432Z 0315/0412 03005KT 2SM BR BKN005
     FM031700 32005KT P6SM BKN010
     FM032100 34008KT P6SM BKN020
     FM040200 VRB03KT P6SM SCT060
      AMD LTD TO CLD VIS AND WIND=



000
FTUS41 KBUF 031432 AAA
TAFROC
TAF AMD
KROC 031432Z 0315/0412 09004KT P6SM BKN015
     FM031800 05005KT P6SM BKN025
     FM032300 VRB03KT P6SM BKN050=



000
FTUS41 KBUF 031432 AAB
TAFART
TAF AMD
KART 031432Z 0315/0412 04007KT P6SM BKN015
     FM031700 35004KT P6SM SCT020
     FM040000 26005KT P6SM SCT045
     FM040200 23004KT P6SM BKN040=



000
FTUS41 KBUF 031432 AAA
TAFROC
TAF AMD
KROC 031432Z 0315/0412 09004KT P6SM BKN015
     FM031800 05005KT P6SM BKN025
     FM032300 VRB03KT P6SM BKN050=



000
FTUS41 KBUF 031432 AAA
TAFJHW
TAF AMD
KJHW 031432Z 0315/0412 03005KT 2SM BR BKN005
     FM031700 32005KT P6SM BKN010
     FM032100 34008KT P6SM BKN020
     FM040200 VRB03KT P6SM SCT060
      AMD LTD TO CLD VIS AND WIND=



000
FTUS41 KBUF 031325 AAA
TAFART
TAF AMD
KART 031325Z 0313/0412 04007KT 6SM BR BKN010
     FM031700 35004KT P6SM SCT020
     FM040000 26005KT P6SM SCT045
     FM040200 23004KT P6SM BKN040=



    US Dept of Commerce
    National Oceanic and Atmospheric Administration
    National Weather Service
    1325 East West Highway
    Silver Spring, MD 20910
    Page Author: NWS Internet Services Team
Disclaimer
Information Quality
Credits
Glossary
Privacy Policy
Freedom of Information Act (FOIA)
About Us
Career Opportunities